sensor_id;sensor_type;location;lat;lon;timestamp;P1;durP1;ratioP1;P2;durP2;ratioP2
69712;SDS011;56980;51.826;4.424;2022-07-24T00:01:54;30.50;;;18.07;;
69712;SDS011;56980;51.826;4.424;2022-07-24T00:04:20;29.52;;;18.27;;
69712;SDS011;56980;51.826;4.424;2022-07-24T00:06:46;27.47;;;16.80;;
69712;SDS011;56980;51.826;4.424;2022-07-24T00:09:11;24.73;;;16.40;;
69712;SDS011;56980;51.826;4.424;2022-07-24T00:11:37;30.67;;;15.97;;
69712;SDS011;56980;51.826;4.424;2022-07-24T00:14:03;24.70;;;16.47;;
69712;SDS011;56980;51.826;4.424;2022-07-24T00:16:28;27.27;;;16.48;;
69712;SDS011;56980;51.826;4.424;2022-07-24T00:18:54;24.80;;;16.02;;
69712;SDS011;56980;51.826;4.424;2022-07-24T00:21:19;21.87;;;15.87;;
69712;SDS011;56980;51.826;4.424;2022-07-24T00:23:45;28.40;;;17.00;;
69712;SDS011;56980;51.826;4.424;2022-07-24T00:26:11;23.97;;;16.07;;
69712;SDS011;56980;51.826;4.424;2022-07-24T00:28:37;25.17;;;15.45;;
69712;SDS011;56980;51.826;4.424;2022-07-24T00:31:03;23.80;;;14.13;;
69712;SDS011;56980;51.826;4.424;2022-07-24T00:33:42;26.63;;;15.57;;
69712;SDS011;56980;51.826;4.424;2022-07-24T00:36:08;24.00;;;13.97;;
69712;SDS011;56980;51.826;4.424;2022-07-24T00:38:35;21.52;;;14.18;;
69712;SDS011;56980;51.826;4.424;2022-07-24T00:41:00;19.83;;;14.20;;
69712;SDS011;56980;51.826;4.424;2022-07-24T00:43:26;22.65;;;14.13;;
69712;SDS011;56980;51.826;4.424;2022-07-24T00:45:51;22.60;;;14.13;;
69712;SDS011;56980;51.826;4.424;2022-07-24T00:48:17;21.37;;;13.40;;
69712;SDS011;56980;51.826;4.424;2022-07-24T00:50:43;20.73;;;13.27;;
69712;SDS011;56980;51.826;4.424;2022-07-24T00:53:09;23.95;;;13.95;;
69712;SDS011;56980;51.826;4.424;2022-07-24T00:55:35;21.23;;;12.95;;
69712;SDS011;56980;51.826;4.424;2022-07-24T00:58:02;20.17;;;13.52;;
69712;SDS011;56980;51.826;4.424;2022-07-24T01:00:27;25.93;;;13.90;;
69712;SDS011;56980;51.826;4.424;2022-07-24T01:02:53;21.40;;;14.00;;
69712;SDS011;56980;51.826;4.424;2022-07-24T01:05:19;17.63;;;11.50;;
69712;SDS011;56980;51.826;4.424;2022-07-24T01:07:45;20.05;;;11.05;;
69712;SDS011;56980;51.826;4.424;2022-07-24T01:10:11;21.58;;;13.07;;
69712;SDS011;56980;51.826;4.424;2022-07-24T01:12:37;16.70;;;12.40;;
69712;SDS011;56980;51.826;4.424;2022-07-24T01:15:04;18.75;;;11.40;;
69712;SDS011;56980;51.826;4.424;2022-07-24T01:17:34;18.33;;;11.07;;
69712;SDS011;56980;51.826;4.424;2022-07-24T01:20:03;19.67;;;10.93;;
69712;SDS011;56980;51.826;4.424;2022-07-24T01:22:30;18.83;;;11.15;;
69712;SDS011;56980;51.826;4.424;2022-07-24T01:24:57;22.77;;;11.23;;
69712;SDS011;56980;51.826;4.424;2022-07-24T01:27:23;17.70;;;9.73;;
69712;SDS011;56980;51.826;4.424;2022-07-24T01:29:50;17.17;;;10.15;;
69712;SDS011;56980;51.826;4.424;2022-07-24T01:32:16;17.60;;;10.40;;
69712;SDS011;56980;51.826;4.424;2022-07-24T01:34:41;16.43;;;10.53;;
69712;SDS011;56980;51.826;4.424;2022-07-24T01:37:07;17.63;;;11.82;;
69712;SDS011;56980;51.826;4.424;2022-07-24T01:39:33;15.77;;;10.70;;
69712;SDS011;56980;51.826;4.424;2022-07-24T01:41:58;21.02;;;10.70;;
69712;SDS011;56980;51.826;4.424;2022-07-24T01:44:24;17.97;;;11.33;;
69712;SDS011;56980;51.826;4.424;2022-07-24T01:46:49;17.60;;;10.27;;
69712;SDS011;56980;51.826;4.424;2022-07-24T01:49:15;18.10;;;11.10;;
69712;SDS011;56980;51.826;4.424;2022-07-24T01:51:40;18.48;;;10.75;;
69712;SDS011;56980;51.826;4.424;2022-07-24T01:54:06;16.30;;;9.57;;
69712;SDS011;56980;51.826;4.424;2022-07-24T01:56:31;15.57;;;9.90;;
69712;SDS011;56980;51.826;4.424;2022-07-24T01:58:57;15.07;;;9.10;;
69712;SDS011;56980;51.826;4.424;2022-07-24T02:01:23;17.23;;;8.53;;
69712;SDS011;56980;51.826;4.424;2022-07-24T02:03:49;15.18;;;7.50;;
69712;SDS011;56980;51.826;4.424;2022-07-24T02:06:15;15.73;;;8.40;;
69712;SDS011;56980;51.826;4.424;2022-07-24T02:08:41;12.45;;;7.03;;
69712;SDS011;56980;51.826;4.424;2022-07-24T02:11:06;15.73;;;7.75;;
69712;SDS011;56980;51.826;4.424;2022-07-24T02:13:32;15.17;;;7.20;;
69712;SDS011;56980;51.826;4.424;2022-07-24T02:15:58;10.60;;;6.30;;
69712;SDS011;56980;51.826;4.424;2022-07-24T02:18:23;11.23;;;6.05;;
69712;SDS011;56980;51.826;4.424;2022-07-24T02:20:49;14.07;;;5.73;;
69712;SDS011;56980;51.826;4.424;2022-07-24T02:23:14;9.15;;;6.03;;
69712;SDS011;56980;51.826;4.424;2022-07-24T02:25:43;8.47;;;5.97;;
69712;SDS011;56980;51.826;4.424;2022-07-24T02:28:10;11.45;;;5.68;;
69712;SDS011;56980;51.826;4.424;2022-07-24T02:30:36;8.23;;;5.78;;
69712;SDS011;56980;51.826;4.424;2022-07-24T02:33:02;10.45;;;5.30;;
69712;SDS011;56980;51.826;4.424;2022-07-24T02:35:28;11.27;;;5.33;;
69712;SDS011;56980;51.826;4.424;2022-07-24T02:37:53;10.03;;;5.70;;
69712;SDS011;56980;51.826;4.424;2022-07-24T02:40:19;10.63;;;5.40;;
69712;SDS011;56980;51.826;4.424;2022-07-24T02:42:44;12.00;;;5.60;;
69712;SDS011;56980;51.826;4.424;2022-07-24T02:45:10;12.03;;;5.30;;
69712;SDS011;56980;51.826;4.424;2022-07-24T02:47:45;10.15;;;5.22;;
69712;SDS011;56980;51.826;4.424;2022-07-24T02:50:14;8.88;;;4.97;;
69712;SDS011;56980;51.826;4.424;2022-07-24T02:52:40;7.80;;;4.70;;
69712;SDS011;56980;51.826;4.424;2022-07-24T02:55:06;11.87;;;4.50;;
69712;SDS011;56980;51.826;4.424;2022-07-24T02:57:32;10.68;;;4.88;;
69712;SDS011;56980;51.826;4.424;2022-07-24T02:59:57;6.53;;;4.10;;
69712;SDS011;56980;51.826;4.424;2022-07-24T03:02:23;7.45;;;4.45;;
69712;SDS011;56980;51.826;4.424;2022-07-24T03:04:48;9.90;;;4.77;;
69712;SDS011;56980;51.826;4.424;2022-07-24T03:07:17;10.13;;;4.00;;
69712;SDS011;56980;51.826;4.424;2022-07-24T03:09:43;8.98;;;4.00;;
69712;SDS011;56980;51.826;4.424;2022-07-24T03:12:08;5.97;;;4.10;;
69712;SDS011;56980;51.826;4.424;2022-07-24T03:14:34;7.40;;;3.80;;
69712;SDS011;56980;51.826;4.424;2022-07-24T03:16:59;7.80;;;3.83;;
69712;SDS011;56980;51.826;4.424;2022-07-24T03:19:25;7.23;;;3.50;;
69712;SDS011;56980;51.826;4.424;2022-07-24T03:21:50;4.70;;;3.30;;
69712;SDS011;56980;51.826;4.424;2022-07-24T03:24:16;10.63;;;4.07;;
69712;SDS011;56980;51.826;4.424;2022-07-24T03:26:41;5.75;;;3.50;;
69712;SDS011;56980;51.826;4.424;2022-07-24T03:29:07;8.23;;;4.40;;
69712;SDS011;56980;51.826;4.424;2022-07-24T03:31:32;6.60;;;4.13;;
69712;SDS011;56980;51.826;4.424;2022-07-24T03:33:58;11.20;;;4.27;;
69712;SDS011;56980;51.826;4.424;2022-07-24T03:36:23;11.83;;;4.57;;
69712;SDS011;56980;51.826;4.424;2022-07-24T03:38:49;9.83;;;5.27;;
69712;SDS011;56980;51.826;4.424;2022-07-24T03:41:14;10.47;;;4.53;;
69712;SDS011;56980;51.826;4.424;2022-07-24T03:43:39;9.90;;;5.43;;
69712;SDS011;56980;51.826;4.424;2022-07-24T03:46:05;9.30;;;5.35;;
69712;SDS011;56980;51.826;4.424;2022-07-24T03:48:30;10.43;;;5.90;;
69712;SDS011;56980;51.826;4.424;2022-07-24T03:50:56;12.57;;;6.23;;
69712;SDS011;56980;51.826;4.424;2022-07-24T03:53:22;8.07;;;4.90;;
69712;SDS011;56980;51.826;4.424;2022-07-24T03:55:47;7.80;;;5.03;;
69712;SDS011;56980;51.826;4.424;2022-07-24T03:58:12;12.67;;;5.77;;
69712;SDS011;56980;51.826;4.424;2022-07-24T04:00:38;12.63;;;5.93;;
69712;SDS011;56980;51.826;4.424;2022-07-24T04:03:03;9.93;;;5.22;;
69712;SDS011;56980;51.826;4.424;2022-07-24T04:05:29;9.17;;;5.87;;
69712;SDS011;56980;51.826;4.424;2022-07-24T04:07:54;9.73;;;5.67;;
69712;SDS011;56980;51.826;4.424;2022-07-24T04:10:20;8.77;;;5.57;;
69712;SDS011;56980;51.826;4.424;2022-07-24T04:12:46;10.77;;;5.77;;
69712;SDS011;56980;51.826;4.424;2022-07-24T04:15:11;11.43;;;5.63;;
69712;SDS011;56980;51.826;4.424;2022-07-24T04:17:38;11.53;;;5.77;;
69712;SDS011;56980;51.826;4.424;2022-07-24T04:20:05;8.23;;;4.80;;
69712;SDS011;56980;51.826;4.424;2022-07-24T04:22:33;12.10;;;5.25;;
69712;SDS011;56980;51.826;4.424;2022-07-24T04:24:58;9.53;;;5.23;;
69712;SDS011;56980;51.826;4.424;2022-07-24T04:27:23;11.27;;;5.77;;
69712;SDS011;56980;51.826;4.424;2022-07-24T04:29:49;6.97;;;4.77;;
69712;SDS011;56980;51.826;4.424;2022-07-24T04:32:14;8.80;;;4.83;;
69712;SDS011;56980;51.826;4.424;2022-07-24T04:34:40;11.88;;;4.50;;
69712;SDS011;56980;51.826;4.424;2022-07-24T04:37:05;13.43;;;4.63;;
69712;SDS011;56980;51.826;4.424;2022-07-24T04:39:30;9.67;;;4.53;;
69712;SDS011;56980;51.826;4.424;2022-07-24T04:41:56;8.63;;;4.10;;
69712;SDS011;56980;51.826;4.424;2022-07-24T04:44:21;6.30;;;3.93;;
69712;SDS011;56980;51.826;4.424;2022-07-24T04:46:46;6.27;;;3.67;;
69712;SDS011;56980;51.826;4.424;2022-07-24T04:49:12;7.75;;;4.25;;
69712;SDS011;56980;51.826;4.424;2022-07-24T04:51:37;7.40;;;3.80;;
69712;SDS011;56980;51.826;4.424;2022-07-24T04:54:03;5.17;;;3.40;;
69712;SDS011;56980;51.826;4.424;2022-07-24T04:56:29;6.53;;;3.67;;
69712;SDS011;56980;51.826;4.424;2022-07-24T04:58:57;7.88;;;3.53;;
69712;SDS011;56980;51.826;4.424;2022-07-24T05:01:23;8.77;;;3.43;;
69712;SDS011;56980;51.826;4.424;2022-07-24T05:03:48;4.53;;;3.17;;
69712;SDS011;56980;51.826;4.424;2022-07-24T05:06:14;7.63;;;3.73;;
69712;SDS011;56980;51.826;4.424;2022-07-24T05:08:39;5.60;;;3.40;;
69712;SDS011;56980;51.826;4.424;2022-07-24T05:11:04;6.63;;;3.47;;
69712;SDS011;56980;51.826;4.424;2022-07-24T05:13:30;7.07;;;3.30;;
69712;SDS011;56980;51.826;4.424;2022-07-24T05:15:55;6.20;;;3.80;;
69712;SDS011;56980;51.826;4.424;2022-07-24T05:18:21;6.93;;;3.38;;
69712;SDS011;56980;51.826;4.424;2022-07-24T05:20:46;8.27;;;3.53;;
69712;SDS011;56980;51.826;4.424;2022-07-24T05:23:12;7.80;;;3.80;;
69712;SDS011;56980;51.826;4.424;2022-07-24T05:25:41;6.95;;;3.53;;
69712;SDS011;56980;51.826;4.424;2022-07-24T05:28:07;7.73;;;4.27;;
69712;SDS011;56980;51.826;4.424;2022-07-24T05:30:32;6.60;;;3.50;;
69712;SDS011;56980;51.826;4.424;2022-07-24T05:32:58;6.87;;;3.50;;
69712;SDS011;56980;51.826;4.424;2022-07-24T05:35:23;5.93;;;3.15;;
69712;SDS011;56980;51.826;4.424;2022-07-24T05:37:49;6.80;;;3.40;;
69712;SDS011;56980;51.826;4.424;2022-07-24T05:40:14;6.27;;;3.37;;
69712;SDS011;56980;51.826;4.424;2022-07-24T05:42:44;4.72;;;3.00;;
69712;SDS011;56980;51.826;4.424;2022-07-24T05:45:09;3.60;;;3.00;;
69712;SDS011;56980;51.826;4.424;2022-07-24T05:47:36;5.23;;;2.80;;
69712;SDS011;56980;51.826;4.424;2022-07-24T05:50:11;4.60;;;2.97;;
69712;SDS011;56980;51.826;4.424;2022-07-24T05:52:38;5.05;;;3.20;;
69712;SDS011;56980;51.826;4.424;2022-07-24T05:55:04;5.60;;;3.30;;
69712;SDS011;56980;51.826;4.424;2022-07-24T05:57:30;6.55;;;3.45;;
69712;SDS011;56980;51.826;4.424;2022-07-24T05:59:56;6.47;;;3.20;;
69712;SDS011;56980;51.826;4.424;2022-07-24T06:02:21;6.43;;;3.67;;
69712;SDS011;56980;51.826;4.424;2022-07-24T06:04:47;6.00;;;3.20;;
69712;SDS011;56980;51.826;4.424;2022-07-24T06:07:12;5.67;;;3.43;;
69712;SDS011;56980;51.826;4.424;2022-07-24T06:09:38;4.37;;;2.97;;
69712;SDS011;56980;51.826;4.424;2022-07-24T06:12:05;8.23;;;3.28;;
69712;SDS011;56980;51.826;4.424;2022-07-24T06:14:31;5.55;;;2.90;;
69712;SDS011;56980;51.826;4.424;2022-07-24T06:16:57;6.23;;;2.93;;
69712;SDS011;56980;51.826;4.424;2022-07-24T06:19:25;6.13;;;3.95;;
69712;SDS011;56980;51.826;4.424;2022-07-24T06:21:51;5.78;;;3.50;;
69712;SDS011;56980;51.826;4.424;2022-07-24T06:24:17;4.67;;;3.27;;
69712;SDS011;56980;51.826;4.424;2022-07-24T06:26:42;6.90;;;3.20;;
69712;SDS011;56980;51.826;4.424;2022-07-24T06:29:08;6.03;;;3.70;;
69712;SDS011;56980;51.826;4.424;2022-07-24T06:31:33;5.77;;;3.17;;
69712;SDS011;56980;51.826;4.424;2022-07-24T06:33:59;4.45;;;3.40;;
69712;SDS011;56980;51.826;4.424;2022-07-24T06:36:26;3.92;;;2.95;;
69712;SDS011;56980;51.826;4.424;2022-07-24T06:38:52;7.33;;;3.83;;
69712;SDS011;56980;51.826;4.424;2022-07-24T06:41:18;4.72;;;3.90;;
69712;SDS011;56980;51.826;4.424;2022-07-24T06:43:43;5.68;;;3.83;;
69712;SDS011;56980;51.826;4.424;2022-07-24T06:46:09;6.63;;;3.73;;
69712;SDS011;56980;51.826;4.424;2022-07-24T06:48:36;6.20;;;3.95;;
69712;SDS011;56980;51.826;4.424;2022-07-24T06:51:01;6.47;;;3.50;;
69712;SDS011;56980;51.826;4.424;2022-07-24T06:53:27;8.43;;;3.67;;
69712;SDS011;56980;51.826;4.424;2022-07-24T06:55:52;4.80;;;3.17;;
69712;SDS011;56980;51.826;4.424;2022-07-24T06:58:19;6.05;;;3.30;;
69712;SDS011;56980;51.826;4.424;2022-07-24T07:00:46;7.10;;;3.38;;
69712;SDS011;56980;51.826;4.424;2022-07-24T07:03:12;6.37;;;3.40;;
69712;SDS011;56980;51.826;4.424;2022-07-24T07:05:37;6.78;;;3.60;;
69712;SDS011;56980;51.826;4.424;2022-07-24T07:08:03;5.37;;;3.33;;
69712;SDS011;56980;51.826;4.424;2022-07-24T07:10:29;4.47;;;3.10;;
69712;SDS011;56980;51.826;4.424;2022-07-24T07:12:54;7.68;;;2.92;;
69712;SDS011;56980;51.826;4.424;2022-07-24T07:15:20;4.90;;;3.17;;
69712;SDS011;56980;51.826;4.424;2022-07-24T07:17:46;5.20;;;2.73;;
69712;SDS011;56980;51.826;4.424;2022-07-24T07:20:12;3.90;;;2.27;;
69712;SDS011;56980;51.826;4.424;2022-07-24T07:22:38;4.35;;;2.58;;
69712;SDS011;56980;51.826;4.424;2022-07-24T07:25:05;4.47;;;2.80;;
69712;SDS011;56980;51.826;4.424;2022-07-24T07:27:31;4.28;;;2.40;;
69712;SDS011;56980;51.826;4.424;2022-07-24T07:29:57;5.10;;;2.53;;
69712;SDS011;56980;51.826;4.424;2022-07-24T07:32:23;4.20;;;2.07;;
69712;SDS011;56980;51.826;4.424;2022-07-24T07:34:48;2.90;;;2.00;;
69712;SDS011;56980;51.826;4.424;2022-07-24T07:37:13;3.47;;;2.20;;
69712;SDS011;56980;51.826;4.424;2022-07-24T07:39:39;3.77;;;2.20;;
69712;SDS011;56980;51.826;4.424;2022-07-24T07:42:04;5.13;;;2.30;;
69712;SDS011;56980;51.826;4.424;2022-07-24T07:44:30;4.23;;;2.30;;
69712;SDS011;56980;51.826;4.424;2022-07-24T07:46:55;4.90;;;2.17;;
69712;SDS011;56980;51.826;4.424;2022-07-24T07:49:21;3.50;;;2.10;;
69712;SDS011;56980;51.826;4.424;2022-07-24T07:51:46;2.90;;;2.00;;
69712;SDS011;56980;51.826;4.424;2022-07-24T07:54:15;2.78;;;2.22;;
69712;SDS011;56980;51.826;4.424;2022-07-24T07:56:41;5.68;;;2.67;;
69712;SDS011;56980;51.826;4.424;2022-07-24T07:59:07;2.83;;;2.17;;
69712;SDS011;56980;51.826;4.424;2022-07-24T08:01:36;3.15;;;2.13;;
69712;SDS011;56980;51.826;4.424;2022-07-24T08:04:02;4.23;;;2.13;;
69712;SDS011;56980;51.826;4.424;2022-07-24T08:06:28;3.13;;;2.08;;
69712;SDS011;56980;51.826;4.424;2022-07-24T08:08:54;3.35;;;1.95;;
69712;SDS011;56980;51.826;4.424;2022-07-24T08:11:20;4.00;;;2.37;;
69712;SDS011;56980;51.826;4.424;2022-07-24T08:13:45;3.38;;;2.10;;
69712;SDS011;56980;51.826;4.424;2022-07-24T08:16:11;5.83;;;2.20;;
69712;SDS011;56980;51.826;4.424;2022-07-24T08:18:37;2.85;;;2.03;;
69712;SDS011;56980;51.826;4.424;2022-07-24T08:21:02;3.87;;;2.03;;
69712;SDS011;56980;51.826;4.424;2022-07-24T08:23:28;2.80;;;2.08;;
69712;SDS011;56980;51.826;4.424;2022-07-24T08:25:53;3.17;;;2.00;;
69712;SDS011;56980;51.826;4.424;2022-07-24T08:28:19;3.50;;;1.80;;
69712;SDS011;56980;51.826;4.424;2022-07-24T08:30:46;4.10;;;2.38;;
69712;SDS011;56980;51.826;4.424;2022-07-24T08:33:12;3.33;;;2.27;;
69712;SDS011;56980;51.826;4.424;2022-07-24T08:35:37;4.57;;;2.30;;
69712;SDS011;56980;51.826;4.424;2022-07-24T08:38:03;4.55;;;2.40;;
69712;SDS011;56980;51.826;4.424;2022-07-24T08:40:34;2.65;;;2.20;;
69712;SDS011;56980;51.826;4.424;2022-07-24T08:43:05;3.70;;;2.05;;
69712;SDS011;56980;51.826;4.424;2022-07-24T08:45:37;5.43;;;2.22;;
69712;SDS011;56980;51.826;4.424;2022-07-24T08:48:06;3.40;;;1.77;;
69712;SDS011;56980;51.826;4.424;2022-07-24T08:50:34;4.68;;;1.70;;
69712;SDS011;56980;51.826;4.424;2022-07-24T08:53:01;6.40;;;2.30;;
69712;SDS011;56980;51.826;4.424;2022-07-24T08:55:28;5.82;;;2.35;;
69712;SDS011;56980;51.826;4.424;2022-07-24T08:57:56;4.30;;;2.25;;
69712;SDS011;56980;51.826;4.424;2022-07-24T09:00:31;4.73;;;2.10;;
69712;SDS011;56980;51.826;4.424;2022-07-24T09:02:58;4.00;;;2.00;;
69712;SDS011;56980;51.826;4.424;2022-07-24T09:05:24;3.75;;;2.20;;
69712;SDS011;56980;51.826;4.424;2022-07-24T09:07:50;3.63;;;2.13;;
69712;SDS011;56980;51.826;4.424;2022-07-24T09:10:16;4.27;;;2.43;;
69712;SDS011;56980;51.826;4.424;2022-07-24T09:12:43;4.75;;;2.40;;
69712;SDS011;56980;51.826;4.424;2022-07-24T09:15:15;5.15;;;2.25;;
69712;SDS011;56980;51.826;4.424;2022-07-24T09:17:52;2.75;;;1.95;;
69712;SDS011;56980;51.826;4.424;2022-07-24T09:20:19;5.63;;;2.03;;
69712;SDS011;56980;51.826;4.424;2022-07-24T09:22:46;4.60;;;2.13;;
69712;SDS011;56980;51.826;4.424;2022-07-24T09:25:27;5.40;;;2.28;;
69712;SDS011;56980;51.826;4.424;2022-07-24T09:30:31;2.67;;;2.10;;
69712;SDS011;56980;51.826;4.424;2022-07-24T09:33:02;3.10;;;2.22;;
69712;SDS011;56980;51.826;4.424;2022-07-24T09:38:05;4.80;;;2.45;;
69712;SDS011;56980;51.826;4.424;2022-07-24T09:43:27;3.85;;;2.30;;
69712;SDS011;56980;51.826;4.424;2022-07-24T09:48:36;3.83;;;2.63;;
69712;SDS011;56980;51.826;4.424;2022-07-24T09:51:13;4.93;;;2.38;;
69712;SDS011;56980;51.826;4.424;2022-07-24T09:53:40;4.80;;;2.60;;
69712;SDS011;56980;51.826;4.424;2022-07-24T09:56:13;4.22;;;2.20;;
69712;SDS011;56980;51.826;4.424;2022-07-24T10:01:11;4.57;;;2.33;;
69712;SDS011;56980;51.826;4.424;2022-07-24T10:03:43;5.75;;;2.47;;
69712;SDS011;56980;51.826;4.424;2022-07-24T10:06:11;4.10;;;2.03;;
69712;SDS011;56980;51.826;4.424;2022-07-24T10:08:39;5.93;;;2.63;;
69712;SDS011;56980;51.826;4.424;2022-07-24T10:11:06;3.83;;;2.33;;
69712;SDS011;56980;51.826;4.424;2022-07-24T10:13:32;3.25;;;2.28;;
69712;SDS011;56980;51.826;4.424;2022-07-24T10:18:23;5.20;;;2.20;;
69712;SDS011;56980;51.826;4.424;2022-07-24T10:21:05;3.85;;;2.33;;
69712;SDS011;56980;51.826;4.424;2022-07-24T10:23:42;5.17;;;2.23;;
69712;SDS011;56980;51.826;4.424;2022-07-24T10:26:16;3.08;;;2.10;;
69712;SDS011;56980;51.826;4.424;2022-07-24T10:28:51;2.92;;;2.25;;
69712;SDS011;56980;51.826;4.424;2022-07-24T10:31:23;3.70;;;2.13;;
69712;SDS011;56980;51.826;4.424;2022-07-24T10:33:51;3.45;;;2.25;;
69712;SDS011;56980;51.826;4.424;2022-07-24T10:36:21;4.47;;;2.37;;
69712;SDS011;56980;51.826;4.424;2022-07-24T10:38:54;6.05;;;2.45;;
69712;SDS011;56980;51.826;4.424;2022-07-24T10:41:24;6.00;;;2.10;;
69712;SDS011;56980;51.826;4.424;2022-07-24T10:46:56;4.85;;;2.35;;
69712;SDS011;56980;51.826;4.424;2022-07-24T10:49:37;3.83;;;2.43;;
69712;SDS011;56980;51.826;4.424;2022-07-24T10:52:04;4.28;;;2.75;;
69712;SDS011;56980;51.826;4.424;2022-07-24T10:54:29;6.00;;;2.30;;
69712;SDS011;56980;51.826;4.424;2022-07-24T10:56:55;4.20;;;2.78;;
69712;SDS011;56980;51.826;4.424;2022-07-24T10:59:34;5.33;;;2.43;;
69712;SDS011;56980;51.826;4.424;2022-07-24T11:10:44;9.65;;;2.88;;
69712;SDS011;56980;51.826;4.424;2022-07-24T11:18:37;6.10;;;2.45;;
69712;SDS011;56980;51.826;4.424;2022-07-24T11:21:04;4.00;;;2.60;;
69712;SDS011;56980;51.826;4.424;2022-07-24T11:23:30;6.82;;;3.03;;
69712;SDS011;56980;51.826;4.424;2022-07-24T11:29:12;3.53;;;2.30;;
69712;SDS011;56980;51.826;4.424;2022-07-24T11:31:38;3.38;;;2.33;;
69712;SDS011;56980;51.826;4.424;2022-07-24T11:34:04;4.20;;;2.60;;
69712;SDS011;56980;51.826;4.424;2022-07-24T11:36:29;5.80;;;2.53;;
69712;SDS011;56980;51.826;4.424;2022-07-24T11:38:55;4.07;;;2.63;;
69712;SDS011;56980;51.826;4.424;2022-07-24T11:41:21;4.30;;;2.33;;
69712;SDS011;56980;51.826;4.424;2022-07-24T11:43:53;6.77;;;2.57;;
69712;SDS011;56980;51.826;4.424;2022-07-24T11:46:34;4.03;;;2.35;;
69712;SDS011;56980;51.826;4.424;2022-07-24T11:49:05;5.13;;;2.65;;
69712;SDS011;56980;51.826;4.424;2022-07-24T11:51:32;4.90;;;2.63;;
69712;SDS011;56980;51.826;4.424;2022-07-24T11:54:05;5.23;;;2.40;;
69712;SDS011;56980;51.826;4.424;2022-07-24T11:56:30;4.00;;;2.38;;
69712;SDS011;56980;51.826;4.424;2022-07-24T11:58:56;6.47;;;2.23;;
69712;SDS011;56980;51.826;4.424;2022-07-24T12:01:22;5.30;;;2.55;;
69712;SDS011;56980;51.826;4.424;2022-07-24T12:03:49;3.47;;;2.40;;
69712;SDS011;56980;51.826;4.424;2022-07-24T12:06:19;3.22;;;2.28;;
69712;SDS011;56980;51.826;4.424;2022-07-24T12:08:45;5.40;;;3.08;;
69712;SDS011;56980;51.826;4.424;2022-07-24T12:11:11;4.80;;;2.70;;
69712;SDS011;56980;51.826;4.424;2022-07-24T12:13:40;4.20;;;2.38;;
69712;SDS011;56980;51.826;4.424;2022-07-24T12:16:06;4.23;;;2.57;;
69712;SDS011;56980;51.826;4.424;2022-07-24T12:18:33;5.18;;;2.50;;
69712;SDS011;56980;51.826;4.424;2022-07-24T12:20:59;4.82;;;2.80;;
69712;SDS011;56980;51.826;4.424;2022-07-24T12:23:26;7.83;;;2.97;;
69712;SDS011;56980;51.826;4.424;2022-07-24T12:25:54;4.53;;;2.50;;
69712;SDS011;56980;51.826;4.424;2022-07-24T12:28:20;3.50;;;2.72;;
69712;SDS011;56980;51.826;4.424;2022-07-24T12:30:49;5.30;;;2.47;;
69712;SDS011;56980;51.826;4.424;2022-07-24T12:33:23;4.03;;;2.78;;
69712;SDS011;56980;51.826;4.424;2022-07-24T12:36:01;4.13;;;2.90;;
69712;SDS011;56980;51.826;4.424;2022-07-24T12:41:06;4.88;;;2.53;;
69712;SDS011;56980;51.826;4.424;2022-07-24T12:43:33;7.10;;;2.57;;
69712;SDS011;56980;51.826;4.424;2022-07-24T12:46:21;5.22;;;2.90;;
69712;SDS011;56980;51.826;4.424;2022-07-24T12:49:00;3.45;;;2.53;;
69712;SDS011;56980;51.826;4.424;2022-07-24T12:54:18;4.25;;;2.60;;
69712;SDS011;56980;51.826;4.424;2022-07-24T12:56:49;4.53;;;2.60;;
69712;SDS011;56980;51.826;4.424;2022-07-24T12:59:23;4.25;;;2.67;;
69712;SDS011;56980;51.826;4.424;2022-07-24T13:01:50;6.57;;;3.30;;
69712;SDS011;56980;51.826;4.424;2022-07-24T13:04:24;4.75;;;2.67;;
69712;SDS011;56980;51.826;4.424;2022-07-24T13:06:51;4.93;;;2.70;;
69712;SDS011;56980;51.826;4.424;2022-07-24T13:09:19;4.27;;;2.33;;
69712;SDS011;56980;51.826;4.424;2022-07-24T13:11:46;4.10;;;2.70;;
69712;SDS011;56980;51.826;4.424;2022-07-24T13:14:13;5.80;;;2.50;;
69712;SDS011;56980;51.826;4.424;2022-07-24T13:16:40;5.43;;;2.80;;
69712;SDS011;56980;51.826;4.424;2022-07-24T13:19:07;3.53;;;2.42;;
69712;SDS011;56980;51.826;4.424;2022-07-24T13:21:34;7.20;;;2.50;;
69712;SDS011;56980;51.826;4.424;2022-07-24T13:24:01;3.95;;;2.75;;
69712;SDS011;56980;51.826;4.424;2022-07-24T13:26:27;4.18;;;2.60;;
69712;SDS011;56980;51.826;4.424;2022-07-24T13:28:52;6.43;;;2.67;;
69712;SDS011;56980;51.826;4.424;2022-07-24T13:31:18;5.03;;;2.10;;
69712;SDS011;56980;51.826;4.424;2022-07-24T13:33:46;4.18;;;2.60;;
69712;SDS011;56980;51.826;4.424;2022-07-24T13:36:13;5.20;;;2.53;;
69712;SDS011;56980;51.826;4.424;2022-07-24T13:38:39;2.22;;;1.98;;
69712;SDS011;56980;51.826;4.424;2022-07-24T13:41:05;3.93;;;2.17;;
69712;SDS011;56980;51.826;4.424;2022-07-24T13:43:30;3.13;;;1.90;;
69712;SDS011;56980;51.826;4.424;2022-07-24T13:45:55;2.93;;;2.30;;
69712;SDS011;56980;51.826;4.424;2022-07-24T13:48:21;5.83;;;2.50;;
69712;SDS011;56980;51.826;4.424;2022-07-24T13:50:47;3.40;;;2.20;;
69712;SDS011;56980;51.826;4.424;2022-07-24T13:53:12;3.30;;;2.33;;
69712;SDS011;56980;51.826;4.424;2022-07-24T13:55:38;5.10;;;2.30;;
69712;SDS011;56980;51.826;4.424;2022-07-24T13:58:03;3.80;;;2.50;;
69712;SDS011;56980;51.826;4.424;2022-07-24T14:00:29;4.00;;;2.40;;
69712;SDS011;56980;51.826;4.424;2022-07-24T14:02:54;3.63;;;2.50;;
69712;SDS011;56980;51.826;4.424;2022-07-24T14:05:22;4.20;;;2.50;;
69712;SDS011;56980;51.826;4.424;2022-07-24T14:07:49;6.10;;;2.20;;
69712;SDS011;56980;51.826;4.424;2022-07-24T14:10:14;4.03;;;2.47;;
69712;SDS011;56980;51.826;4.424;2022-07-24T14:12:39;6.17;;;2.57;;
69712;SDS011;56980;51.826;4.424;2022-07-24T14:15:05;6.47;;;2.50;;
69712;SDS011;56980;51.826;4.424;2022-07-24T14:17:31;3.80;;;1.90;;
69712;SDS011;56980;51.826;4.424;2022-07-24T14:19:57;4.87;;;2.50;;
69712;SDS011;56980;51.826;4.424;2022-07-24T14:22:22;4.57;;;2.53;;
69712;SDS011;56980;51.826;4.424;2022-07-24T14:24:48;5.33;;;2.40;;
69712;SDS011;56980;51.826;4.424;2022-07-24T14:27:13;3.03;;;2.40;;
69712;SDS011;56980;51.826;4.424;2022-07-24T14:29:39;5.60;;;2.20;;
69712;SDS011;56980;51.826;4.424;2022-07-24T14:32:04;5.67;;;2.80;;
69712;SDS011;56980;51.826;4.424;2022-07-24T14:34:29;5.87;;;2.23;;
69712;SDS011;56980;51.826;4.424;2022-07-24T14:36:55;3.73;;;2.13;;
69712;SDS011;56980;51.826;4.424;2022-07-24T14:39:20;3.93;;;2.20;;
69712;SDS011;56980;51.826;4.424;2022-07-24T14:41:46;9.77;;;2.63;;
69712;SDS011;56980;51.826;4.424;2022-07-24T14:44:11;3.40;;;2.43;;
69712;SDS011;56980;51.826;4.424;2022-07-24T14:46:37;3.40;;;2.13;;
69712;SDS011;56980;51.826;4.424;2022-07-24T14:49:03;3.22;;;2.10;;
69712;SDS011;56980;51.826;4.424;2022-07-24T14:51:28;5.33;;;2.33;;
69712;SDS011;56980;51.826;4.424;2022-07-24T14:53:53;3.42;;;2.13;;
69712;SDS011;56980;51.826;4.424;2022-07-24T14:56:19;3.37;;;2.10;;
69712;SDS011;56980;51.826;4.424;2022-07-24T14:58:44;4.70;;;2.33;;
69712;SDS011;56980;51.826;4.424;2022-07-24T15:01:09;3.27;;;2.13;;
69712;SDS011;56980;51.826;4.424;2022-07-24T15:03:35;3.87;;;2.37;;
69712;SDS011;56980;51.826;4.424;2022-07-24T15:06:00;2.57;;;1.87;;
69712;SDS011;56980;51.826;4.424;2022-07-24T15:08:26;3.92;;;2.30;;
69712;SDS011;56980;51.826;4.424;2022-07-24T15:10:51;4.47;;;2.67;;
69712;SDS011;56980;51.826;4.424;2022-07-24T15:13:16;3.40;;;1.87;;
69712;SDS011;56980;51.826;4.424;2022-07-24T15:15:42;5.50;;;2.17;;
69712;SDS011;56980;51.826;4.424;2022-07-24T15:18:08;2.88;;;1.95;;
69712;SDS011;56980;51.826;4.424;2022-07-24T15:20:34;7.77;;;2.50;;
69712;SDS011;56980;51.826;4.424;2022-07-24T15:22:59;2.50;;;2.20;;